createdAt,value
2018-06-09T00:01:27.674Z,91.20
2018-06-09T00:03:56.518Z,91.00
2018-06-09T00:06:25.472Z,91.00
2018-06-09T00:08:54.423Z,91.10
2018-06-09T00:11:23.272Z,91.40
2018-06-09T00:13:52.227Z,91.20
2018-06-09T00:16:21.211Z,91.30
2018-06-09T00:18:50.015Z,91.20
2018-06-09T00:21:21.102Z,91.40
2018-06-09T00:23:49.959Z,91.50
2018-06-09T00:26:18.834Z,91.30
2018-06-09T00:28:47.674Z,91.40
2018-06-09T00:31:16.522Z,91.30
2018-06-09T00:33:45.507Z,91.70
2018-06-09T00:36:14.351Z,90.60
2018-06-09T00:38:43.319Z,89.00
2018-06-09T00:41:12.263Z,87.80
2018-06-09T00:43:41.066Z,87.20
2018-06-09T00:46:09.903Z,86.50
2018-06-09T00:48:38.720Z,86.00
2018-06-09T00:51:07.633Z,85.60
2018-06-09T00:56:16.310Z,84.90
2018-06-09T00:58:45.146Z,84.90
2018-06-09T01:01:13.966Z,84.50
2018-06-09T01:03:42.778Z,84.30
2018-06-09T01:06:11.589Z,84.40
2018-06-09T01:08:40.420Z,84.20
2018-06-09T01:11:09.274Z,84.10
2018-06-09T01:13:38.092Z,84.20
2018-06-09T01:16:06.893Z,84.00
2018-06-09T01:18:35.697Z,84.00
2018-06-09T01:21:04.529Z,83.80
2018-06-09T01:23:33.331Z,83.80
2018-06-09T01:26:02.147Z,83.70
2018-06-09T01:28:30.950Z,83.70
2018-06-09T01:30:59.782Z,83.60
2018-06-09T01:33:28.792Z,83.50
2018-06-09T01:35:57.622Z,83.50
2018-06-09T01:38:26.445Z,84.10
2018-06-09T01:40:55.271Z,83.50
2018-06-09T01:43:24.126Z,83.30
2018-06-09T01:48:21.430Z,83.30
2018-06-09T01:50:50.241Z,83.40
2018-06-09T01:53:19.059Z,83.30
2018-06-09T01:55:47.883Z,83.20
2018-06-09T01:58:16.842Z,83.30
2018-06-09T02:00:45.663Z,83.20
2018-06-09T02:03:14.477Z,83.30
2018-06-09T02:05:43.290Z,83.30
2018-06-09T02:08:12.113Z,83.20
2018-06-09T02:10:40.937Z,83.20
2018-06-09T02:13:09.749Z,83.20
2018-06-09T02:15:38.555Z,83.20
2018-06-09T02:18:07.437Z,83.10
2018-06-09T02:20:36.242Z,83.10
2018-06-09T02:23:05.106Z,83.10
2018-06-09T02:25:33.939Z,83.10
2018-06-09T02:28:02.774Z,83.10
2018-06-09T02:30:31.596Z,83.10
2018-06-09T02:35:28.962Z,83.80
2018-06-09T02:37:57.787Z,83.10
2018-06-09T02:40:26.610Z,83.00
2018-06-09T02:42:55.450Z,83.00
2018-06-09T02:45:24.254Z,83.00
2018-06-09T02:47:53.088Z,83.00
2018-06-09T02:50:21.912Z,83.00
2018-06-09T02:52:50.770Z,83.00
2018-06-09T02:55:19.596Z,82.90
2018-06-09T02:57:48.406Z,82.80
2018-06-09T03:00:17.225Z,82.80
2018-06-09T03:02:46.035Z,82.80
2018-06-09T03:07:43.330Z,83.50
2018-06-09T03:10:12.146Z,82.70
2018-06-09T03:12:40.982Z,82.70
2018-06-09T03:15:09.810Z,82.60
2018-06-09T03:17:38.633Z,82.60
2018-06-09T03:20:07.454Z,82.60
2018-06-09T03:25:05.607Z,82.50
2018-06-09T03:27:34.430Z,82.60
2018-06-09T03:32:31.827Z,82.50
2018-06-09T03:35:00.614Z,82.40
2018-06-09T03:37:29.470Z,82.50
2018-06-09T03:42:26.770Z,82.50
2018-06-09T03:44:55.600Z,82.50
2018-06-09T03:47:24.414Z,82.40
2018-06-09T03:49:53.242Z,82.40
2018-06-09T03:52:22.065Z,82.30
2018-06-09T03:54:50.897Z,82.30
2018-06-09T03:57:19.787Z,82.20
2018-06-09T03:59:48.696Z,82.20
2018-06-09T04:02:17.517Z,82.20
2018-06-09T04:04:46.524Z,82.20
2018-06-09T04:07:15.342Z,82.20
2018-06-09T04:09:44.177Z,82.10
2018-06-09T04:12:13.019Z,82.10
2018-06-09T04:14:41.860Z,82.00
2018-06-09T04:17:10.738Z,82.00
2018-06-09T04:19:39.584Z,82.00
2018-06-09T04:22:08.402Z,81.90
2018-06-09T04:24:37.266Z,81.80
2018-06-09T04:27:06.078Z,81.80
2018-06-09T04:29:34.890Z,81.80
2018-06-09T04:32:03.710Z,81.70
2018-06-09T04:34:32.525Z,81.60
2018-06-09T04:37:01.356Z,81.40
2018-06-09T04:39:30.223Z,81.30
2018-06-09T04:41:59.048Z,81.30
2018-06-09T04:44:27.885Z,81.10
2018-06-09T04:46:56.738Z,81.00
2018-06-09T04:49:25.552Z,81.00
2018-06-09T04:51:54.387Z,80.90
2018-06-09T04:54:23.244Z,80.80
2018-06-09T04:56:52.054Z,80.70
2018-06-09T04:59:20.949Z,80.60
2018-06-09T05:01:49.678Z,80.60
2018-06-09T05:04:18.527Z,80.60
2018-06-09T05:06:47.350Z,80.60
2018-06-09T05:11:44.666Z,80.70
2018-06-09T05:14:13.485Z,80.60
2018-06-09T05:16:42.311Z,80.60
2018-06-09T05:19:11.178Z,80.60
2018-06-09T05:21:39.990Z,80.60
2018-06-09T05:24:08.835Z,80.60
2018-06-09T05:26:37.652Z,81.20
2018-06-09T05:29:06.486Z,80.60
2018-06-09T05:31:35.311Z,80.50
2018-06-09T05:34:04.118Z,80.50
2018-06-09T05:36:32.946Z,81.20
2018-06-09T05:39:01.786Z,80.50
2018-06-09T05:41:30.594Z,80.40
2018-06-09T05:43:59.424Z,80.40
2018-06-09T05:46:28.254Z,80.50
2018-06-09T05:48:57.074Z,80.50
2018-06-09T05:51:25.903Z,80.40
2018-06-09T05:53:54.726Z,80.40
2018-06-09T05:56:23.566Z,80.20
2018-06-09T05:58:52.402Z,80.30
2018-06-09T06:01:21.312Z,80.20
2018-06-09T06:03:50.153Z,80.00
2018-06-09T06:06:18.979Z,80.10
2018-06-09T06:08:47.786Z,80.10
2018-06-09T06:11:16.611Z,80.00
2018-06-09T06:13:45.477Z,79.90
2018-06-09T06:16:14.306Z,79.80
2018-06-09T06:21:11.641Z,79.50
2018-06-09T06:23:40.458Z,79.20
2018-06-09T06:26:09.301Z,79.10
2018-06-09T06:28:38.154Z,79.00
2018-06-09T06:31:07.096Z,78.70
2018-06-09T06:36:05.252Z,79.10
2018-06-09T06:38:34.094Z,78.60
2018-06-09T06:41:02.950Z,78.50
2018-06-09T06:43:31.774Z,78.40
2018-06-09T06:46:00.662Z,78.30
2018-06-09T06:48:29.503Z,78.20
2018-06-09T06:50:58.330Z,79.00
2018-06-09T06:53:27.170Z,78.20
2018-06-09T06:55:56.018Z,78.00
2018-06-09T06:58:24.841Z,77.90
2018-06-09T07:00:53.696Z,78.00
2018-06-09T07:05:51.108Z,77.80
2018-06-09T07:08:19.946Z,77.80
2018-06-09T07:10:49.258Z,77.60
2018-06-09T07:13:18.094Z,77.60
2018-06-09T07:15:46.923Z,77.40
2018-06-09T07:18:15.786Z,79.60
2018-06-09T07:25:41.590Z,86.10
2018-06-09T07:28:10.424Z,87.30
2018-06-09T07:30:39.262Z,87.20
2018-06-09T07:33:08.310Z,86.90
2018-06-09T07:35:37.203Z,86.30
2018-06-09T07:38:06.242Z,87.10
2018-06-09T07:40:35.099Z,87.30
2018-06-09T07:43:03.937Z,87.70
2018-06-09T07:45:32.773Z,87.50
2018-06-09T07:48:01.603Z,87.40
2018-06-09T07:50:30.542Z,88.00
2018-06-09T07:52:59.528Z,88.70
2018-06-09T07:55:28.338Z,88.40
2018-06-09T07:57:57.238Z,87.60
2018-06-09T08:00:26.323Z,87.50
2018-06-09T08:02:56.914Z,88.00
2018-06-09T08:05:25.858Z,87.40
2018-06-09T08:07:54.674Z,88.00
2018-06-09T08:10:23.755Z,87.80
2018-06-09T08:12:52.638Z,88.10
2018-06-09T08:15:21.511Z,87.70
2018-06-09T08:17:50.346Z,87.30
2018-06-09T08:20:19.298Z,87.40
2018-06-09T08:22:48.158Z,87.00
2018-06-09T08:25:16.990Z,86.40
2018-06-09T08:27:47.364Z,86.90
2018-06-09T08:30:16.186Z,86.40
2018-06-09T08:32:45.069Z,87.40
2018-06-09T08:35:13.890Z,87.70
2018-06-09T08:37:42.739Z,87.40
2018-06-09T08:40:11.662Z,88.00
2018-06-09T08:42:40.502Z,88.30
2018-06-09T08:45:09.394Z,88.30
2018-06-09T08:47:38.226Z,86.90
2018-06-09T08:50:07.070Z,86.80
2018-06-09T08:52:35.944Z,87.50
2018-06-09T08:55:04.807Z,86.00
2018-06-09T08:57:33.658Z,86.10
2018-06-09T09:00:02.526Z,87.20
2018-06-09T09:02:31.363Z,86.40
2018-06-09T09:05:00.319Z,86.60
2018-06-09T09:07:29.174Z,87.40
2018-06-09T09:09:58.023Z,87.70
2018-06-09T09:12:26.906Z,86.20
2018-06-09T09:14:55.980Z,87.00
2018-06-09T09:17:24.799Z,88.40
2018-06-09T09:19:53.707Z,87.20
2018-06-09T09:22:22.540Z,87.20
2018-06-09T09:24:51.370Z,86.90
2018-06-09T09:27:20.222Z,88.00
2018-06-09T09:29:49.073Z,87.50
2018-06-09T09:32:17.906Z,86.10
2018-06-09T09:34:46.734Z,87.40
2018-06-09T09:37:15.564Z,86.40
2018-06-09T09:39:44.394Z,87.40
2018-06-09T09:42:13.292Z,87.60
2018-06-09T09:44:42.150Z,86.70
2018-06-09T09:49:39.486Z,86.40
2018-06-09T09:52:08.313Z,85.30
2018-06-09T09:57:05.670Z,82.30
2018-06-09T09:59:34.605Z,81.50
2018-06-09T10:02:03.525Z,81.00
2018-06-09T10:04:32.346Z,80.50
2018-06-09T10:07:01.171Z,80.20
2018-06-09T10:09:30.021Z,79.90
2018-06-09T10:11:58.878Z,79.60
2018-06-09T10:14:27.750Z,79.30
2018-06-09T10:16:56.564Z,79.00
2018-06-09T10:19:25.418Z,78.90
2018-06-09T10:21:54.257Z,78.80
2018-06-09T10:24:23.103Z,78.70
2018-06-09T10:26:51.946Z,78.60
2018-06-09T10:29:20.782Z,78.50
2018-06-09T10:31:49.627Z,78.30
2018-06-09T10:34:18.478Z,78.10
2018-06-09T10:36:47.290Z,78.00
2018-06-09T10:39:16.126Z,77.90
2018-06-09T10:41:45.023Z,77.90
2018-06-09T10:44:13.938Z,77.80
2018-06-09T10:46:42.790Z,77.70
2018-06-09T10:49:11.619Z,77.60
2018-06-09T10:51:40.455Z,77.60
2018-06-09T10:54:09.309Z,77.50
2018-06-09T10:56:38.159Z,77.60
2018-06-09T10:59:06.967Z,77.50
2018-06-09T11:01:35.838Z,77.50
2018-06-09T11:04:04.670Z,77.50
2018-06-09T11:06:33.493Z,77.40
2018-06-09T11:09:02.327Z,77.40
2018-06-09T11:11:31.150Z,77.30
2018-06-09T11:13:59.978Z,77.30
2018-06-09T11:35:49.408Z,77.20
2018-06-09T11:38:18.210Z,77.20
2018-06-09T11:43:15.579Z,77.80
2018-06-09T11:48:12.982Z,77.60
2018-06-09T11:50:41.833Z,77.60
2018-06-09T11:53:10.683Z,77.60
2018-06-09T11:55:39.619Z,77.50
2018-06-09T12:00:36.986Z,77.40
2018-06-09T12:05:34.394Z,77.30
2018-06-09T12:08:03.205Z,78.90
2018-06-09T12:10:32.022Z,79.60
2018-06-09T12:13:00.894Z,80.40
2018-06-09T12:15:29.726Z,82.30
2018-06-09T12:17:58.566Z,82.80
2018-06-09T12:20:27.439Z,82.20
2018-06-09T12:22:56.278Z,82.60
2018-06-09T12:25:25.110Z,83.00
2018-06-09T12:27:53.954Z,82.50
2018-06-09T12:30:22.850Z,82.60
2018-06-09T12:32:51.684Z,82.90
2018-06-09T12:35:20.558Z,82.60
2018-06-09T12:37:49.434Z,82.30
2018-06-09T12:40:18.408Z,82.50
2018-06-09T12:47:44.307Z,81.80
2018-06-09T12:50:13.185Z,82.00
2018-06-09T12:52:42.093Z,83.20
2018-06-09T12:55:10.929Z,83.40
2018-06-09T12:57:39.750Z,81.50
2018-06-09T13:00:08.570Z,82.10
2018-06-09T13:02:37.439Z,82.40
2018-06-09T13:05:06.329Z,82.70
2018-06-09T13:07:35.154Z,81.80
2018-06-09T13:12:32.882Z,82.70
2018-06-09T13:15:01.746Z,81.80
2018-06-09T13:17:30.735Z,81.20
2018-06-09T13:19:59.591Z,81.10
2018-06-09T13:22:28.598Z,80.70
2018-06-09T13:24:57.430Z,80.70
2018-06-09T13:27:26.291Z,80.80
2018-06-09T13:29:55.177Z,81.00
2018-06-09T13:32:24.071Z,82.00
2018-06-09T13:34:52.938Z,81.30
2018-06-09T13:37:21.915Z,81.60
2018-06-09T13:39:50.888Z,81.30
2018-06-09T13:42:19.762Z,80.60
2018-06-09T13:44:48.622Z,80.60
2018-06-09T13:47:17.503Z,81.60
2018-06-09T13:52:14.870Z,81.80
2018-06-09T13:57:12.250Z,82.30
2018-06-09T13:59:41.114Z,82.20
2018-06-09T14:02:09.984Z,82.70
2018-06-09T14:04:38.860Z,83.50
2018-06-09T14:07:07.715Z,83.70
2018-06-09T14:09:36.654Z,83.90
2018-06-09T14:12:05.554Z,83.80
2018-06-09T14:14:34.462Z,83.40
2018-06-09T14:17:03.502Z,84.10
2018-06-09T14:19:32.359Z,84.90
2018-06-09T14:22:01.207Z,84.90
2018-06-09T14:24:30.134Z,84.10
2018-06-09T14:26:59.089Z,83.90
2018-06-09T14:29:27.880Z,83.80
2018-06-09T14:31:56.754Z,82.30
2018-06-09T14:34:25.639Z,81.70
2018-06-09T14:36:54.515Z,81.40
2018-06-09T14:39:23.369Z,81.30
2018-06-09T14:41:52.248Z,81.10
2018-06-09T14:46:49.609Z,80.60
2018-06-09T14:49:18.424Z,80.50
2018-06-09T14:51:47.307Z,80.50
2018-06-09T14:54:16.180Z,80.40
2018-06-09T14:56:45.064Z,80.30
2018-06-09T14:59:13.920Z,80.30
2018-06-09T15:01:42.737Z,80.20
2018-06-09T15:04:11.574Z,80.10
2018-06-09T15:06:40.411Z,80.10
2018-06-09T15:09:09.364Z,80.10
2018-06-09T15:11:38.188Z,80.10
2018-06-09T15:14:07.030Z,80.10
2018-06-09T15:16:35.858Z,79.90
2018-06-09T15:19:04.714Z,79.90
2018-06-09T15:21:33.596Z,80.00
2018-06-09T15:24:02.443Z,79.90
2018-06-09T15:26:31.569Z,79.90
2018-06-09T15:29:00.434Z,80.00
2018-06-09T15:31:29.833Z,79.90
2018-06-09T15:33:58.746Z,79.90
2018-06-09T15:36:27.579Z,79.80
2018-06-09T15:38:56.450Z,79.80
2018-06-09T15:41:25.282Z,79.90
2018-06-09T15:43:54.210Z,79.70
2018-06-09T15:46:23.219Z,79.80
2018-06-09T15:48:52.213Z,79.70
2018-06-09T15:51:21.057Z,79.70
2018-06-09T15:53:49.872Z,79.70
2018-06-09T15:56:18.744Z,79.70
2018-06-09T15:58:47.582Z,79.80
2018-06-09T16:01:16.410Z,79.70
2018-06-09T16:03:45.279Z,79.60
2018-06-09T16:06:14.110Z,79.70
2018-06-09T16:08:42.978Z,79.70
2018-06-09T16:11:11.793Z,79.60
2018-06-09T16:13:40.659Z,79.60
2018-06-09T16:16:09.485Z,79.60
2018-06-09T16:18:38.423Z,79.50
2018-06-09T16:21:07.309Z,79.40
2018-06-09T16:23:36.144Z,79.40
2018-06-09T16:26:05.226Z,79.30
2018-06-09T16:28:34.071Z,79.30
2018-06-09T16:31:02.920Z,79.30
2018-06-09T16:33:31.790Z,79.40
2018-06-09T16:36:00.618Z,79.40
2018-06-09T16:38:29.517Z,79.40
2018-06-09T16:40:58.335Z,79.30
2018-06-09T16:43:27.171Z,79.20
2018-06-09T16:45:56.026Z,79.00
2018-06-09T16:48:24.864Z,79.00
2018-06-09T16:50:53.737Z,79.00
2018-06-09T16:53:22.599Z,79.20
2018-06-09T16:55:51.462Z,78.80
2018-06-09T16:58:20.287Z,78.70
2018-06-09T17:00:49.157Z,78.80
2018-06-09T17:03:17.995Z,78.80
2018-06-09T17:05:46.846Z,78.60
2018-06-09T17:08:15.670Z,78.70
2018-06-09T17:10:44.567Z,78.60
2018-06-09T17:13:13.444Z,78.60
2018-06-09T17:15:42.467Z,78.60
2018-06-09T17:18:11.310Z,78.50
2018-06-09T17:20:40.536Z,78.70
2018-06-09T17:23:09.453Z,78.50
2018-06-09T17:25:38.281Z,78.60
2018-06-09T17:28:07.108Z,78.60
2018-06-09T17:30:36.022Z,78.80
2018-06-09T17:33:04.926Z,78.70
2018-06-09T17:35:33.762Z,78.60
2018-06-09T17:38:02.606Z,78.60
2018-06-09T17:40:31.557Z,78.50
2018-06-09T17:43:00.408Z,78.40
2018-06-09T17:45:29.271Z,78.60
2018-06-09T17:47:58.133Z,78.50
2018-06-09T17:50:26.963Z,78.40
2018-06-09T17:52:55.832Z,78.00
2018-06-09T17:55:24.711Z,77.80
2018-06-09T17:57:53.514Z,78.20
2018-06-09T18:00:22.414Z,77.60
2018-06-09T18:02:51.428Z,77.30
2018-06-09T18:05:20.373Z,77.40
2018-06-09T18:07:49.274Z,77.30
2018-06-09T18:10:18.155Z,77.10
2018-06-09T18:12:47.034Z,77.00
2018-06-09T18:15:15.878Z,77.40
2018-06-09T18:17:44.690Z,77.40
2018-06-09T18:20:13.522Z,78.00
2018-06-09T18:22:42.496Z,78.20
2018-06-09T18:25:11.462Z,78.60
2018-06-09T18:27:40.245Z,78.50
2018-06-09T18:30:09.062Z,78.50
2018-06-09T18:32:37.898Z,78.50
2018-06-09T18:35:06.800Z,78.50
2018-06-09T18:37:35.703Z,78.90
2018-06-09T18:40:04.547Z,79.00
2018-06-09T18:42:33.374Z,79.20
2018-06-09T18:45:02.278Z,79.50
2018-06-09T18:47:31.150Z,79.60
2018-06-09T18:49:59.994Z,79.60
2018-06-09T18:52:28.860Z,79.60
2018-06-09T18:54:57.738Z,79.80
2018-06-09T18:57:26.639Z,79.90
2018-06-09T18:59:55.487Z,80.00
2018-06-09T19:02:24.334Z,80.00
2018-06-09T19:04:53.250Z,80.20
2018-06-09T19:07:22.146Z,80.20
2018-06-09T19:09:51.058Z,80.20
2018-06-09T19:12:19.954Z,80.10
2018-06-09T19:14:48.935Z,80.20
2018-06-09T19:17:17.838Z,80.20
2018-06-09T19:19:46.719Z,80.20
2018-06-09T19:22:15.627Z,80.20
2018-06-09T19:24:44.458Z,80.30
2018-06-09T19:27:13.302Z,80.40
2018-06-09T19:29:42.204Z,81.10
2018-06-09T19:32:11.117Z,80.70
2018-06-09T19:34:40.009Z,80.60
2018-06-09T19:37:08.841Z,80.80
2018-06-09T19:39:37.719Z,80.90
2018-06-09T19:42:06.570Z,81.20
2018-06-09T19:44:35.458Z,81.50
2018-06-09T19:47:04.510Z,81.80
2018-06-09T19:49:33.334Z,82.00
2018-06-09T19:52:02.222Z,82.10
2018-06-09T19:54:31.107Z,82.00
2018-06-09T19:56:59.954Z,82.10
2018-06-09T19:59:28.782Z,82.10
2018-06-09T20:01:57.604Z,82.10
2018-06-09T20:04:26.534Z,82.10
2018-06-09T20:06:55.379Z,82.00
2018-06-09T20:09:24.279Z,82.00
2018-06-09T20:11:53.161Z,82.10
2018-06-09T20:14:21.978Z,82.20
2018-06-09T20:16:50.816Z,82.00
2018-06-09T20:21:48.387Z,82.10
2018-06-09T20:24:17.222Z,82.10
2018-06-09T20:26:46.066Z,82.00
2018-06-09T20:29:14.910Z,82.00
2018-06-09T20:31:44.082Z,82.00
2018-06-09T20:34:12.984Z,82.00
2018-06-09T20:36:41.881Z,82.10
2018-06-09T20:39:10.938Z,82.00
2018-06-09T20:41:39.786Z,82.00
2018-06-09T20:44:08.606Z,81.90
2018-06-09T20:46:37.486Z,81.80
2018-06-09T20:49:06.308Z,81.90
2018-06-09T20:51:35.130Z,81.90
2018-06-09T20:54:03.990Z,81.90
2018-06-09T20:56:32.823Z,82.00
2018-06-09T20:59:01.653Z,82.00
2018-06-09T21:01:30.520Z,81.90
2018-06-09T21:03:59.398Z,81.90
2018-06-09T21:06:28.262Z,81.90
2018-06-09T21:08:57.100Z,81.90
2018-06-09T21:11:25.973Z,82.00
2018-06-09T21:13:54.894Z,81.90
2018-06-09T21:16:23.719Z,81.80
2018-06-09T21:18:52.597Z,81.90
2018-06-09T21:21:21.462Z,82.00
2018-06-09T21:23:50.342Z,82.00
2018-06-09T21:26:19.148Z,82.00
2018-06-09T21:28:53.415Z,82.00
2018-06-09T21:31:27.459Z,81.90
2018-06-09T21:34:07.805Z,81.90
2018-06-09T21:36:42.014Z,81.90
2018-06-09T21:39:16.211Z,81.90
2018-06-09T21:41:51.615Z,82.00
2018-06-09T21:44:25.950Z,81.90
2018-06-09T21:46:54.796Z,82.00
2018-06-09T21:49:23.618Z,82.00
2018-06-09T21:51:52.462Z,82.00
2018-06-09T21:54:21.314Z,82.00
2018-06-09T21:56:50.321Z,82.00
2018-06-09T21:59:19.195Z,82.00
2018-06-09T22:01:48.038Z,81.80
2018-06-09T22:04:16.927Z,81.90
2018-06-09T22:06:45.799Z,81.80
2018-06-09T22:11:43.299Z,84.70
2018-06-09T22:14:12.159Z,88.20
2018-06-09T22:16:40.991Z,90.80
2018-06-09T22:19:09.829Z,91.70
2018-06-09T22:24:07.214Z,91.80
2018-06-09T22:26:36.062Z,91.90
2018-06-09T22:29:05.019Z,92.00
2018-06-09T22:31:33.886Z,92.40
2018-06-09T22:34:02.780Z,92.60
2018-06-09T22:36:32.266Z,92.70
2018-06-09T22:39:01.167Z,92.30
2018-06-09T22:41:30.024Z,92.20
2018-06-09T22:43:58.898Z,92.30
2018-06-09T22:46:27.841Z,92.10
2018-06-09T22:48:56.694Z,92.10
2018-06-09T22:51:25.794Z,92.10
2018-06-09T22:53:54.652Z,92.30
2018-06-09T22:56:23.572Z,92.20
2018-06-09T22:58:52.404Z,91.90
2018-06-09T23:01:21.226Z,92.10
2018-06-09T23:03:50.115Z,90.60
2018-06-09T23:06:18.998Z,88.20
2018-06-09T23:08:47.888Z,86.40
2018-06-09T23:11:16.805Z,85.70
2018-06-09T23:13:45.726Z,85.40
2018-06-09T23:16:14.560Z,85.00
2018-06-09T23:18:43.784Z,84.80
2018-06-09T23:21:12.673Z,84.60
2018-06-09T23:23:41.600Z,84.30
2018-06-09T23:26:10.477Z,84.20
2018-06-09T23:31:08.106Z,84.10
2018-06-09T23:33:36.987Z,83.90
2018-06-09T23:36:05.887Z,83.80
2018-06-09T23:38:34.834Z,83.80
2018-06-09T23:41:03.694Z,83.90
2018-06-09T23:43:32.596Z,83.70
2018-06-09T23:46:01.462Z,83.70
2018-06-09T23:48:30.318Z,83.40
2018-06-09T23:51:01.937Z,83.40
2018-06-09T23:53:30.986Z,83.50
2018-06-09T23:55:59.931Z,83.40
2018-06-09T23:58:28.950Z,83.20
